createdAt,value
2022-10-14T00:00:32.504Z,14.93
2022-10-14T00:03:55.305Z,13.40
2022-10-14T00:07:16.908Z,14.43
2022-10-14T00:10:39.715Z,14.50
2022-10-14T00:14:05.739Z,14.13
2022-10-14T00:17:27.715Z,13.53
2022-10-14T00:20:55.750Z,14.03
2022-10-14T00:24:18.820Z,14.43
2022-10-14T00:27:40.289Z,13.40
2022-10-14T00:31:06.863Z,14.80
2022-10-14T00:34:30.580Z,13.07
2022-10-14T00:37:54.642Z,12.90
2022-10-14T00:41:18.870Z,14.17
2022-10-14T00:45:01.696Z,13.37
2022-10-14T00:48:26.979Z,14.00
2022-10-14T00:51:54.234Z,13.70
2022-10-14T00:55:18.800Z,14.20
2022-10-14T00:58:40.265Z,13.60
2022-10-14T01:02:01.877Z,14.60
2022-10-14T01:05:32.259Z,14.20
2022-10-14T01:09:01.775Z,13.87
2022-10-14T01:12:34.403Z,13.47
2022-10-14T01:16:10.674Z,14.17
2022-10-14T01:20:00.300Z,12.53
2022-10-14T01:23:54.316Z,13.33
2022-10-14T01:27:43.827Z,13.57
2022-10-14T01:31:10.651Z,13.40
2022-10-14T01:34:40.463Z,12.93
2022-10-14T01:38:05.366Z,12.77
2022-10-14T01:41:31.066Z,12.93
2022-10-14T01:44:59.609Z,13.13
2022-10-14T01:48:27.950Z,12.33
2022-10-14T01:51:53.521Z,13.97
2022-10-14T01:55:20.889Z,13.60
2022-10-14T01:58:43.611Z,13.10
2022-10-14T02:02:05.559Z,14.10
2022-10-14T02:05:35.484Z,13.43
2022-10-14T02:09:05.493Z,13.23
2022-10-14T02:12:38.554Z,13.07
2022-10-14T02:16:10.026Z,13.10
2022-10-14T02:19:39.748Z,12.87
2022-10-14T02:23:08.135Z,12.90
2022-10-14T02:26:32.240Z,13.13
2022-10-14T02:29:57.385Z,12.93
2022-10-14T02:33:21.124Z,12.83
2022-10-14T02:36:44.206Z,12.90
2022-10-14T02:40:12.559Z,14.37
2022-10-14T02:43:34.338Z,13.33
2022-10-14T02:47:00.406Z,12.93
2022-10-14T02:50:24.006Z,13.20
2022-10-14T02:53:46.615Z,13.63
2022-10-14T02:57:09.231Z,12.73
2022-10-14T03:00:31.011Z,13.13
2022-10-14T03:03:52.754Z,13.03
2022-10-14T03:07:14.547Z,12.97
2022-10-14T03:10:40.754Z,12.67
2022-10-14T03:14:06.800Z,12.23
2022-10-14T03:17:28.339Z,13.30
2022-10-14T03:20:54.200Z,12.43
2022-10-14T03:24:21.712Z,12.80
2022-10-14T03:27:55.010Z,12.90
2022-10-14T03:31:28.623Z,12.50
2022-10-14T03:35:13.201Z,12.70
2022-10-14T03:38:37.462Z,12.50
2022-10-14T03:42:01.943Z,11.70
2022-10-14T03:45:29.514Z,12.00
2022-10-14T03:48:53.990Z,11.57
2022-10-14T03:52:15.711Z,12.03
2022-10-14T03:55:38.850Z,12.07
2022-10-14T03:59:00.731Z,11.73
2022-10-14T04:02:22.742Z,11.60
2022-10-14T04:05:51.628Z,12.70
2022-10-14T04:09:17.285Z,12.33
2022-10-14T04:12:40.137Z,11.73
2022-10-14T04:16:06.736Z,13.10
2022-10-14T04:19:32.231Z,12.33
2022-10-14T04:22:56.617Z,12.80
2022-10-14T04:26:45.876Z,13.23
2022-10-14T04:30:14.939Z,13.27
2022-10-14T04:33:45.467Z,12.70
2022-10-14T04:37:18.261Z,13.47
2022-10-14T04:41:04.376Z,12.47
2022-10-14T04:44:26.140Z,11.73
2022-10-14T04:47:49.251Z,12.23
2022-10-14T04:51:13.898Z,11.73
2022-10-14T04:54:43.800Z,12.20
2022-10-14T04:58:06.990Z,12.23
2022-10-14T05:01:34.441Z,12.50
2022-10-14T05:04:56.528Z,12.23
2022-10-14T05:08:18.864Z,11.43
2022-10-14T05:11:42.492Z,12.07
2022-10-14T05:15:07.672Z,13.57
2022-10-14T05:18:36.326Z,11.67
2022-10-14T05:22:02.790Z,11.43
2022-10-14T05:25:31.556Z,10.97
2022-10-14T05:28:53.352Z,10.33
2022-10-14T05:32:17.353Z,11.77
2022-10-14T05:35:58.009Z,10.73
2022-10-14T05:39:21.815Z,10.97
2022-10-14T05:42:43.066Z,10.83
2022-10-14T05:46:04.894Z,10.43
2022-10-14T05:49:32.991Z,10.57
2022-10-14T05:52:57.634Z,10.40
2022-10-14T05:56:25.669Z,11.23
2022-10-14T05:59:47.791Z,10.83
2022-10-14T06:03:13.076Z,11.30
2022-10-14T06:06:36.857Z,11.07
2022-10-14T06:09:58.744Z,11.20
2022-10-14T06:13:20.215Z,11.27
2022-10-14T06:16:42.251Z,11.43
2022-10-14T06:20:04.521Z,10.90
2022-10-14T06:23:28.283Z,10.20
2022-10-14T06:26:50.239Z,11.67
2022-10-14T06:30:13.209Z,11.07
2022-10-14T06:33:35.727Z,10.87
2022-10-14T06:37:01.956Z,11.63
2022-10-14T06:40:25.764Z,11.20
2022-10-14T06:43:47.167Z,11.40
2022-10-14T06:47:09.157Z,12.40
2022-10-14T06:50:30.817Z,12.00
2022-10-14T06:53:51.841Z,11.60
2022-10-14T06:57:14.474Z,11.53
2022-10-14T07:00:37.310Z,13.30
2022-10-14T07:03:58.868Z,12.70
2022-10-14T07:07:20.738Z,13.77
2022-10-14T07:10:42.487Z,12.80
2022-10-14T07:14:05.181Z,12.97
2022-10-14T07:17:26.907Z,13.87
2022-10-14T07:20:48.138Z,15.10
2022-10-14T07:24:09.878Z,16.50
2022-10-14T07:27:31.121Z,15.50
2022-10-14T07:31:00.247Z,15.70
2022-10-14T07:34:21.790Z,14.10
2022-10-14T07:37:43.606Z,15.57
2022-10-14T07:41:06.688Z,16.80
2022-10-14T07:44:28.303Z,16.17
2022-10-14T07:47:51.763Z,15.30
2022-10-14T07:51:13.162Z,15.67
2022-10-14T07:54:35.001Z,13.57
2022-10-14T07:57:56.795Z,13.53
2022-10-14T08:01:18.827Z,12.67
2022-10-14T08:04:41.638Z,13.20
2022-10-14T08:08:03.304Z,12.90
2022-10-14T08:11:27.196Z,12.93
2022-10-14T08:14:48.825Z,14.83
2022-10-14T08:18:11.827Z,13.90
2022-10-14T08:21:35.390Z,13.97
2022-10-14T08:24:56.559Z,14.47
2022-10-14T08:28:18.426Z,13.87
2022-10-14T08:31:40.058Z,14.37
2022-10-14T08:35:01.983Z,14.60
2022-10-14T08:38:26.215Z,14.63
2022-10-14T08:42:05.810Z,14.77
2022-10-14T08:45:33.765Z,14.37
2022-10-14T08:49:04.103Z,15.80
2022-10-14T08:52:36.515Z,15.20
2022-10-14T08:56:02.093Z,15.13
2022-10-14T08:59:26.554Z,15.63
2022-10-14T09:02:50.423Z,16.47
2022-10-14T09:06:18.947Z,16.07
2022-10-14T09:09:45.717Z,18.02
2022-10-14T09:13:12.981Z,16.07
2022-10-14T09:16:37.402Z,15.48
2022-10-14T09:20:05.324Z,14.20
2022-10-14T09:23:28.953Z,13.30
2022-10-14T09:26:53.294Z,13.93
2022-10-14T09:30:18.517Z,15.75
2022-10-14T09:33:42.379Z,17.52
2022-10-14T09:37:25.588Z,17.35
2022-10-14T09:40:50.524Z,17.90
2022-10-14T09:44:22.748Z,17.67
2022-10-14T09:47:52.403Z,17.27
2022-10-14T09:51:21.887Z,19.00
2022-10-14T09:54:43.729Z,18.73
2022-10-14T09:58:15.043Z,18.40
2022-10-14T10:01:41.560Z,18.92
2022-10-14T10:05:13.600Z,19.63
2022-10-14T10:08:38.130Z,18.15
2022-10-14T10:11:59.859Z,19.17
2022-10-14T10:15:22.690Z,18.55
2022-10-14T10:18:43.844Z,17.65
2022-10-14T10:22:23.063Z,18.67
2022-10-14T10:25:44.942Z,18.40
2022-10-14T10:29:07.054Z,19.58
2022-10-14T10:32:35.178Z,17.40
2022-10-14T10:36:04.341Z,17.45
2022-10-14T10:39:34.630Z,17.52
2022-10-14T10:43:09.852Z,15.52
2022-10-14T10:46:52.593Z,15.55
2022-10-14T10:50:27.318Z,14.90
2022-10-14T10:54:06.019Z,14.40
2022-10-14T10:57:46.002Z,15.50
2022-10-14T11:01:19.133Z,15.32
2022-10-14T11:04:48.785Z,15.23
2022-10-14T11:08:42.038Z,13.40
2022-10-14T11:12:14.173Z,14.07
2022-10-14T11:15:49.542Z,14.40
2022-10-14T11:19:22.646Z,13.93
2022-10-14T11:22:57.923Z,14.15
2022-10-14T11:26:42.657Z,15.25
2022-10-14T11:30:15.297Z,14.20
2022-10-14T11:33:55.590Z,14.95
2022-10-14T11:37:29.806Z,14.25
2022-10-14T11:41:02.067Z,13.93
2022-10-14T11:44:33.417Z,14.40
2022-10-14T11:48:00.432Z,12.10
2022-10-14T11:51:33.240Z,13.00
2022-10-14T11:55:02.830Z,10.68
2022-10-14T11:58:27.675Z,7.90
2022-10-14T12:01:52.978Z,6.88
2022-10-14T12:05:20.524Z,6.43
2022-10-14T12:08:50.238Z,7.60
2022-10-14T12:12:16.111Z,8.77
2022-10-14T12:15:41.440Z,9.02
2022-10-14T12:19:11.066Z,10.88
2022-10-14T12:22:34.927Z,10.50
2022-10-14T12:26:04.343Z,9.60
2022-10-14T12:29:33.847Z,9.45
2022-10-14T12:33:01.639Z,9.35
2022-10-14T12:36:32.319Z,9.98
2022-10-14T12:39:55.487Z,9.63
2022-10-14T12:43:25.465Z,9.45
2022-10-14T12:46:49.266Z,9.85
2022-10-14T12:50:37.249Z,9.23
2022-10-14T12:54:07.062Z,9.70
2022-10-14T12:57:31.138Z,9.48
2022-10-14T13:01:00.364Z,9.13
2022-10-14T13:04:21.826Z,7.70
2022-10-14T13:07:46.567Z,7.85
2022-10-14T13:11:13.459Z,8.30
2022-10-14T13:14:55.084Z,8.10
2022-10-14T13:18:52.551Z,8.15
2022-10-14T13:22:38.174Z,7.22
2022-10-14T13:26:23.763Z,8.35
2022-10-14T13:30:01.916Z,7.93
2022-10-14T13:33:32.331Z,8.82
2022-10-14T13:37:06.460Z,8.90
2022-10-14T13:40:34.561Z,8.23
2022-10-14T13:43:57.770Z,8.13
2022-10-14T13:47:22.307Z,9.15
2022-10-14T13:50:44.611Z,8.80
2022-10-14T13:54:18.173Z,8.88
2022-10-14T13:58:10.868Z,9.35
2022-10-14T14:01:25.331Z,8.93
2022-10-14T14:04:52.085Z,9.05
2022-10-14T14:08:38.816Z,8.85
2022-10-14T14:12:04.110Z,9.85
2022-10-14T14:15:27.682Z,9.65
2022-10-14T14:19:03.891Z,9.63
2022-10-14T14:22:31.579Z,9.55
2022-10-14T14:26:17.647Z,8.68
2022-10-14T14:29:38.991Z,8.57
2022-10-14T14:33:02.932Z,8.43
2022-10-14T14:36:33.478Z,8.60
2022-10-14T14:40:00.064Z,8.50
2022-10-14T14:43:24.108Z,8.02
2022-10-14T14:46:47.291Z,8.85
2022-10-14T14:50:31.265Z,8.55
2022-10-14T14:53:55.551Z,8.40
2022-10-14T14:57:20.773Z,8.55
2022-10-14T15:00:46.091Z,8.55
2022-10-14T15:04:18.206Z,8.95
2022-10-14T15:07:44.388Z,8.57
2022-10-14T15:11:06.446Z,7.75
2022-10-14T15:14:35.852Z,7.75
2022-10-14T15:18:14.590Z,7.20
2022-10-14T15:21:37.368Z,7.63
2022-10-14T15:25:07.913Z,9.18
2022-10-14T15:28:31.667Z,7.93
2022-10-14T15:32:12.630Z,8.48
2022-10-14T15:35:36.634Z,6.60
2022-10-14T15:39:01.661Z,6.70
2022-10-14T15:42:23.513Z,6.55
2022-10-14T15:45:47.274Z,6.47
2022-10-14T15:49:16.031Z,6.97
2022-10-14T15:52:37.321Z,7.40
2022-10-14T15:56:00.732Z,7.35
2022-10-14T15:59:22.439Z,7.63
2022-10-14T16:02:44.547Z,7.32
2022-10-14T16:06:06.236Z,6.30
2022-10-14T16:09:28.646Z,7.45
2022-10-14T16:12:52.370Z,7.53
2022-10-14T16:16:14.496Z,8.10
2022-10-14T16:19:36.069Z,7.40
2022-10-14T16:23:01.313Z,8.50
2022-10-14T16:26:22.981Z,8.30
2022-10-14T16:29:45.656Z,8.13
2022-10-14T16:33:07.792Z,8.50
2022-10-14T16:36:30.064Z,7.60
2022-10-14T16:39:52.806Z,8.63
2022-10-14T16:43:14.066Z,9.10
2022-10-14T16:46:53.768Z,8.30
2022-10-14T16:50:15.456Z,8.35
2022-10-14T16:53:44.898Z,9.52
2022-10-14T16:57:07.302Z,8.05
2022-10-14T17:00:28.728Z,7.28
2022-10-14T17:03:51.701Z,8.38
2022-10-14T17:07:14.792Z,10.20
2022-10-14T17:10:36.733Z,10.43
2022-10-14T17:14:00.115Z,9.23
2022-10-14T17:17:23.773Z,9.77
2022-10-14T17:20:47.357Z,8.30
2022-10-14T17:24:09.338Z,8.95
2022-10-14T17:27:30.990Z,9.27
2022-10-14T17:30:52.540Z,8.75
2022-10-14T17:34:14.455Z,8.43
2022-10-14T17:37:37.316Z,8.90
2022-10-14T17:41:02.790Z,9.18
2022-10-14T17:44:26.688Z,9.05
2022-10-14T17:47:48.771Z,8.98
2022-10-14T17:51:11.212Z,8.07
2022-10-14T17:54:34.553Z,9.55
2022-10-14T17:57:56.243Z,8.80
2022-10-14T18:01:18.405Z,8.10
2022-10-14T18:04:39.676Z,8.73
2022-10-14T18:08:01.343Z,8.18
2022-10-14T18:11:25.664Z,9.00
2022-10-14T18:14:46.854Z,8.23
2022-10-14T18:18:09.290Z,7.93
2022-10-14T18:21:31.472Z,8.45
2022-10-14T18:24:53.104Z,9.52
2022-10-14T18:28:16.068Z,9.45
2022-10-14T18:31:39.328Z,8.48
2022-10-14T18:35:02.145Z,9.20
2022-10-14T18:38:23.669Z,10.90
2022-10-14T18:41:45.394Z,8.43
2022-10-14T18:45:09.049Z,9.00
2022-10-14T18:48:30.719Z,8.60
2022-10-14T18:51:53.474Z,8.60
2022-10-14T18:55:15.317Z,8.95
2022-10-14T18:58:38.404Z,8.40
2022-10-14T19:02:01.748Z,8.30
2022-10-14T19:05:23.126Z,8.48
2022-10-14T19:08:44.992Z,9.52
2022-10-14T19:12:26.878Z,7.65
2022-10-14T19:15:53.829Z,7.63
2022-10-14T19:19:18.734Z,9.15
2022-10-14T19:22:44.765Z,8.73
2022-10-14T19:26:06.687Z,8.10
2022-10-14T19:29:28.260Z,7.68
2022-10-14T19:32:49.442Z,7.00
2022-10-14T19:36:13.818Z,7.55
2022-10-14T19:39:35.052Z,8.30
2022-10-14T19:42:56.372Z,8.07
2022-10-14T19:46:18.230Z,8.10
2022-10-14T19:49:39.592Z,7.75
2022-10-14T19:53:02.325Z,7.78
2022-10-14T19:56:23.895Z,7.60
2022-10-14T19:59:45.332Z,7.97
2022-10-14T20:03:07.047Z,7.38
2022-10-14T20:06:32.758Z,7.60
2022-10-14T20:09:58.107Z,9.30
2022-10-14T20:13:22.597Z,9.82
2022-10-14T20:16:44.015Z,11.80
2022-10-14T20:20:06.076Z,12.48
2022-10-14T20:23:28.378Z,12.98
2022-10-14T20:26:51.342Z,12.57
2022-10-14T20:30:13.900Z,12.98
2022-10-14T20:33:35.452Z,12.35
2022-10-14T20:36:57.012Z,12.70
2022-10-14T20:40:18.642Z,12.55
2022-10-14T20:43:42.759Z,11.50
2022-10-14T20:47:04.459Z,11.65
2022-10-14T20:50:26.407Z,10.52
2022-10-14T20:53:48.347Z,11.45
2022-10-14T20:57:10.669Z,10.10
2022-10-14T21:00:33.562Z,10.50
2022-10-14T21:03:55.045Z,9.75
2022-10-14T21:07:17.989Z,10.52
2022-10-14T21:10:39.205Z,10.73
2022-10-14T21:14:01.679Z,10.93
2022-10-14T21:17:25.226Z,10.20
2022-10-14T21:20:46.974Z,10.32
2022-10-14T21:24:09.656Z,10.88
2022-10-14T21:27:30.814Z,10.77
2022-10-14T21:30:52.470Z,11.68
2022-10-14T21:34:16.227Z,12.77
2022-10-14T21:37:37.663Z,11.73
2022-10-14T21:41:00.170Z,12.30
2022-10-14T21:44:22.151Z,11.55
2022-10-14T21:47:43.814Z,12.85
2022-10-14T21:51:10.288Z,13.27
2022-10-14T21:54:31.868Z,15.00
2022-10-14T21:57:53.567Z,14.98
2022-10-14T22:01:17.266Z,14.27
2022-10-14T22:04:38.635Z,13.63
2022-10-14T22:08:02.155Z,13.98
2022-10-14T22:11:25.991Z,12.40
2022-10-14T22:14:47.305Z,13.57
2022-10-14T22:18:08.559Z,12.73
2022-10-14T22:21:32.211Z,12.80
2022-10-14T22:24:55.090Z,13.45
2022-10-14T22:28:16.484Z,13.25
2022-10-14T22:31:38.359Z,13.25
2022-10-14T22:35:00.011Z,13.88
2022-10-14T22:38:21.291Z,14.68
2022-10-14T22:41:44.066Z,14.27
2022-10-14T22:45:07.252Z,13.20
2022-10-14T22:48:30.307Z,13.82
2022-10-14T22:51:54.555Z,13.68
2022-10-14T22:55:18.191Z,13.73
2022-10-14T22:58:41.613Z,14.13
2022-10-14T23:02:03.071Z,14.65
2022-10-14T23:05:24.238Z,14.23
2022-10-14T23:08:45.799Z,14.18
2022-10-14T23:12:07.559Z,13.98
2022-10-14T23:15:30.246Z,14.43
2022-10-14T23:18:52.704Z,15.35
2022-10-14T23:22:14.073Z,15.40
2022-10-14T23:25:35.692Z,14.20
2022-10-14T23:28:59.054Z,14.70
2022-10-14T23:32:22.230Z,15.32
2022-10-14T23:35:43.583Z,13.68
2022-10-14T23:39:06.099Z,14.52
2022-10-14T23:42:27.757Z,14.98
2022-10-14T23:45:49.507Z,14.90
2022-10-14T23:49:26.810Z,14.45
2022-10-14T23:52:48.370Z,14.55
2022-10-14T23:56:09.664Z,14.85
2022-10-14T23:59:31.281Z,14.48
